Time;durP1;ratioP1;P1;durP2;ratioP2;P2;SDS_P1;SDS_P2;PMS_P1;PMS_P2;Temp;Humidity;BMP_temperature;BMP_pressure;BME280_temperature;BME280_humidity;BME280_pressure;Samples;Min_cycle;Max_cycle;Signal;HPM_P1;HPM_P2
2021/03/10 00:01:12;;;;;;;23.63;16.43;;;;;;;-2.34;50.01;100631.13;1744802;82;21610;-61
2021/03/10 00:03:40;;;;;;;38.70;24.73;;;;;;;-2.34;50.35;100633.77;1744946;82;21591;-59
2021/03/10 00:06:08;;;;;;;25.70;16.50;;;;;;;-2.36;50.52;100633.09;1754516;80;22313;-61
2021/03/10 00:08:37;;;;;;;30.17;16.77;;;;;;;-2.41;50.63;100634.02;1757864;80;21194;-60
2021/03/10 00:11:05;;;;;;;27.17;15.97;;;;;;;-2.42;50.75;100634.98;1745065;82;21635;-59
2021/03/10 00:13:33;;;;;;;21.63;14.40;;;;;;;-2.44;50.75;100636.91;1744915;82;21137;-61
2021/03/10 00:16:01;;;;;;;15.37;9.53;;;;;;;-2.66;51.04;100634.97;1745412;80;21591;-60
2021/03/10 00:18:29;;;;;;;13.53;10.43;;;;;;;-2.90;51.41;100636.39;1744936;80;21241;-61
2021/03/10 00:20:56;;;;;;;15.80;8.97;;;;;;;-3.14;51.88;100631.08;1737617;82;21178;-61
2021/03/10 00:23:24;;;;;;;16.60;9.70;;;;;;;-3.35;52.37;100637.42;1737028;82;21185;-66
2021/03/10 00:25:52;;;;;;;16.10;10.60;;;;;;;-3.51;52.80;100634.05;1742096;81;21154;-61
2021/03/10 00:28:19;;;;;;;11.03;8.60;;;;;;;-3.65;53.09;100624.76;1738671;82;21676;-64
2021/03/10 00:30:47;;;;;;;10.43;7.40;;;;;;;-3.86;53.48;100627.95;1730591;82;21384;-61
2021/03/10 00:33:14;;;;;;;13.27;8.37;;;;;;;-4.09;53.76;100628.65;1701324;84;21600;-61
2021/03/10 00:35:42;;;;;;;12.00;8.23;;;;;;;-4.28;54.10;100622.00;1743400;81;22233;-62
2021/03/10 00:38:10;;;;;;;13.80;8.83;;;;;;;-4.38;54.43;100624.23;1737109;82;21595;-62
2021/03/10 00:40:39;;;;;;;9.10;6.30;;;;;;;-4.53;54.67;100619.81;1759763;81;21195;-60
2021/03/10 00:43:06;;;;;;;10.87;7.80;;;;;;;-4.68;55.07;100620.63;1701502;84;22203;-61
2021/03/10 00:45:34;;;;;;;18.33;12.63;;;;;;;-4.80;55.32;100615.11;1767024;81;21990;-61
2021/03/10 00:48:02;;;;;;;10.83;8.50;;;;;;;-4.87;55.57;100616.09;1673181;85;21186;-62
2021/03/10 00:50:31;;;;;;;15.17;9.23;;;;;;;-4.90;55.72;100616.84;1736575;82;21071;-62
2021/03/10 00:52:59;;;;;;;13.17;9.27;;;;;;;-5.00;55.96;100621.19;1673170;85;21193;-63
2021/03/10 00:55:27;;;;;;;18.60;12.40;;;;;;;-5.11;56.29;100620.75;1736826;82;21394;-61
2021/03/10 00:57:54;;;;;;;19.33;13.67;;;;;;;-5.15;56.64;100618.04;1686263;84;21154;-62
2021/03/10 01:00:24;;;;;;;16.77;10.50;;;;;;;-5.08;56.82;100619.18;1736953;82;21183;-61
2021/03/10 01:02:52;;;;;;;14.30;11.00;;;;;;;-5.02;56.95;100619.16;1736981;82;21586;-61
2021/03/10 01:05:19;;;;;;;16.30;11.60;;;;;;;-5.05;57.16;100621.57;1747550;81;21635;-60
2021/03/10 01:07:47;;;;;;;17.23;12.37;;;;;;;-4.95;57.26;100621.16;1740135;81;22795;-59
2021/03/10 01:10:17;;;;;;;17.93;11.57;;;;;;;-4.81;57.09;100623.94;1737707;82;21143;-62
2021/03/10 01:12:44;;;;;;;18.90;11.27;;;;;;;-4.75;57.05;100622.12;1745930;81;21232;-60
2021/03/10 01:15:17;;;;;;;21.77;10.50;;;;;;;-4.73;56.92;100617.55;1682728;84;21573;-61
2021/03/10 01:17:47;;;;;;;20.43;12.87;;;;;;;-4.65;57.04;100616.42;1742539;81;21175;-60
2021/03/10 01:20:19;;;;;;;17.93;12.47;;;;;;;-4.50;57.08;100615.12;1735277;81;21437;-61
2021/03/10 01:22:47;;;;;;;19.43;13.53;;;;;;;-4.26;56.97;100616.13;1736113;81;21186;-62
2021/03/10 01:25:15;;;;;;;17.20;11.23;;;;;;;-4.10;56.41;100605.12;1745085;81;21146;-60
2021/03/10 01:27:43;;;;;;;19.77;12.07;;;;;;;-3.96;56.13;100608.70;1738857;81;21571;-60
2021/03/10 01:30:13;;;;;;;18.77;11.47;;;;;;;-3.84;55.81;100609.43;1732852;81;21185;-61
2021/03/10 01:32:41;;;;;;;14.33;10.53;;;;;;;-3.73;55.53;100607.50;1735766;81;21276;-60
2021/03/10 01:35:11;;;;;;;18.83;10.87;;;;;;;-3.63;55.26;100613.60;1753179;81;21612;-61
2021/03/10 01:37:39;;;;;;;18.70;12.33;;;;;;;-3.55;54.98;100611.62;1737329;81;21517;-61
2021/03/10 01:40:13;;;;;;;19.33;14.27;;;;;;;-3.54;54.85;100613.27;1732327;81;22066;-61
2021/03/10 01:43:04;;;;;;;21.77;14.50;;;;;;;-3.53;54.83;100617.08;1748226;81;21182;-61
2021/03/10 01:45:49;;;;;;;30.13;24.30;;;;;;;-3.43;54.75;100620.20;1732945;81;22230;-60
2021/03/10 01:51:03;;;;;;;40.67;31.57;;;;;;;-3.26;54.33;100611.13;1899331;75;25518;-60
2021/03/10 01:53:32;;;;;;;41.87;28.30;;;;;;;-3.39;54.19;100619.78;1789677;80;21043;-62
2021/03/10 01:56:01;;;;;;;31.73;25.70;;;;;;;-3.46;54.52;100615.23;1811414;79;21376;-60
2021/03/10 01:58:28;;;;;;;23.67;20.00;;;;;;;-3.44;54.54;100621.99;1778652;80;21984;-60
2021/03/10 02:00:56;;;;;;;28.70;22.07;;;;;;;-3.40;54.49;100615.97;1786703;79;20971;-59
2021/03/10 02:03:23;;;;;;;28.23;19.20;;;;;;;-3.52;54.50;100620.06;1789926;79;21601;-59
2021/03/10 02:05:52;;;;;;;24.70;19.67;;;;;;;-3.65;54.68;100626.07;1796750;79;20994;-60
2021/03/10 02:08:28;;;;;;;23.87;16.27;;;;;;;-3.79;55.01;100625.11;1786457;79;21174;-60
2021/03/10 02:11:22;;;;;;;18.87;15.03;;;;;;;-3.82;55.36;100625.39;1793789;78;21070;-61
2021/03/10 02:14:04;;;;;;;30.87;19.30;;;;;;;-3.77;55.45;100625.82;1790301;80;21007;-60
2021/03/10 02:16:55;;;;;;;21.60;15.83;;;;;;;-3.67;55.37;100624.05;1816911;78;21184;-63
2021/03/10 02:19:50;;;;;;;24.87;16.77;;;;;;;-3.60;55.23;100625.15;1777648;80;21113;-60
2021/03/10 02:22:53;;;;;;;25.20;17.57;;;;;;;-3.63;55.34;100627.23;1769366;79;21205;-61
2021/03/10 02:26:11;;;;;;;26.63;16.77;;;;;;;-3.57;55.30;100630.16;1764164;81;21146;-61
2021/03/10 02:28:39;;;;;;;17.40;13.97;;;;;;;-3.61;55.26;100624.83;1810769;79;21611;-59
2021/03/10 02:31:08;;;;;;;21.63;15.67;;;;;;;-3.69;55.26;100625.97;1811738;79;21777;-62
2021/03/10 02:33:37;;;;;;;21.10;16.33;;;;;;;-3.65;55.31;100619.50;1775319;79;21106;-61
2021/03/10 02:36:10;;;;;;;20.03;14.60;;;;;;;-3.52;55.11;100626.64;1748875;82;21264;-60
2021/03/10 02:38:43;;;;;;;15.53;12.25;;;;;;;-3.44;54.96;100630.36;1733602;81;21563;-61
2021/03/10 02:41:11;;;;;;;17.03;12.03;;;;;;;-3.40;54.75;100631.75;1752858;81;21113;-61
2021/03/10 02:43:41;;;;;;;15.57;11.60;;;;;;;-3.49;54.91;100626.00;1755081;81;22722;-59
2021/03/10 02:46:08;;;;;;;18.27;13.20;;;;;;;-3.56;55.12;100625.25;1747820;82;21167;-59
2021/03/10 02:48:37;;;;;;;13.53;9.80;;;;;;;-3.54;55.25;100627.72;1747734;82;21425;-59
2021/03/10 02:51:05;;;;;;;22.20;11.40;;;;;;;-3.45;55.09;100629.53;1748013;81;21190;-60
2021/03/10 02:53:34;;;;;;;18.77;11.97;;;;;;;-3.40;54.72;100630.43;1743922;81;21164;-60
2021/03/10 02:56:01;;;;;;;18.43;11.17;;;;;;;-3.35;54.57;100633.48;1751104;81;21036;-59
2021/03/10 02:58:28;;;;;;;16.20;11.20;;;;;;;-3.31;54.66;100627.80;1732945;81;21522;-61
2021/03/10 03:00:56;;;;;;;20.50;12.47;;;;;;;-3.34;54.76;100632.52;1761970;81;21222;-61
2021/03/10 03:03:24;;;;;;;23.37;13.10;;;;;;;-3.50;54.81;100630.42;1761074;81;21167;-62
2021/03/10 03:05:52;;;;;;;21.17;12.50;;;;;;;-3.72;55.23;100624.10;1762162;81;20986;-60
2021/03/10 03:08:19;;;;;;;26.30;14.33;;;;;;;-3.90;55.61;100627.04;1743227;81;21116;-59
2021/03/10 03:10:46;;;;;;;29.30;16.90;;;;;;;-4.00;56.02;100631.78;1732654;81;21172;-61
2021/03/10 03:13:15;;;;;;;20.37;14.63;;;;;;;-4.07;56.26;100629.33;1739334;81;21397;-61
2021/03/10 03:15:53;;;;;;;23.23;15.10;;;;;;;-4.18;56.57;100630.76;1761574;81;21132;-60
2021/03/10 03:18:21;;;;;;;21.63;15.10;;;;;;;-4.23;56.89;100630.80;1761664;81;21148;-60
2021/03/10 03:20:50;;;;;;;23.83;15.07;;;;;;;-4.27;57.13;100634.18;1761590;81;21575;-59
2021/03/10 03:23:18;;;;;;;25.33;14.10;;;;;;;-4.20;57.19;100630.52;1760858;81;21472;-59
2021/03/10 03:25:46;;;;;;;22.20;14.83;;;;;;;-4.15;57.20;100631.80;1761988;81;21416;-60
2021/03/10 03:28:15;;;;;;;35.03;17.43;;;;;;;-4.03;57.20;100632.55;1762179;81;21128;-60
2021/03/10 03:30:43;;;;;;;21.87;14.87;;;;;;;-3.99;57.14;100634.77;1761950;81;21128;-60
2021/03/10 03:33:16;;;;;;;22.67;13.90;;;;;;;-4.00;57.01;100634.89;1760941;81;21143;-59
2021/03/10 03:35:46;;;;;;;19.02;12.95;;;;;;;-4.09;57.11;100637.00;1747411;82;21142;-60
2021/03/10 03:38:13;;;;;;;20.33;14.20;;;;;;;-4.25;57.26;100635.34;1747211;82;21315;-60
2021/03/10 03:40:40;;;;;;;22.70;14.97;;;;;;;-4.42;57.68;100642.05;1703481;81;21564;-60
2021/03/10 03:43:09;;;;;;;24.93;15.23;;;;;;;-4.52;57.95;100638.54;1761702;81;21227;-59
2021/03/10 03:45:37;;;;;;;23.87;13.47;;;;;;;-4.61;58.28;100633.59;1761524;81;21165;-59
2021/03/10 03:48:06;;;;;;;23.53;13.63;;;;;;;-4.70;58.59;100634.34;1755199;81;21110;-60
2021/03/10 03:50:34;;;;;;;25.33;13.07;;;;;;;-4.71;58.91;100635.80;1727404;82;21203;-60
2021/03/10 03:53:02;;;;;;;23.30;13.50;;;;;;;-4.79;59.05;100640.36;1747825;82;21916;-60
2021/03/10 03:55:29;;;;;;;30.60;19.30;;;;;;;-4.84;59.34;100638.60;1720989;81;34120;-61
2021/03/10 03:57:57;;;;;;;28.43;16.93;;;;;;;-4.76;59.58;100634.05;1688722;83;21218;-59
2021/03/10 04:00:25;;;;;;;27.13;15.67;;;;;;;-4.60;59.58;100633.92;1716443;83;21113;-62
2021/03/10 04:02:53;;;;;;;42.40;16.47;;;;;;;-4.40;59.44;100633.06;1692384;83;21653;-61
2021/03/10 04:05:21;;;;;;;23.20;14.07;;;;;;;-4.20;58.98;100640.55;1732480;82;21402;-61
2021/03/10 04:07:54;;;;;;;23.10;13.13;;;;;;;-4.15;58.81;100637.05;1711479;83;21082;-60
2021/03/10 04:10:28;;;;;;;27.17;17.27;;;;;;;-4.05;58.69;100634.45;1732914;82;21588;-60
2021/03/10 04:12:56;;;;;;;24.97;15.57;;;;;;;-4.07;58.67;100632.43;1710814;83;21229;-60
2021/03/10 04:15:26;;;;;;;28.23;16.40;;;;;;;-4.23;58.57;100636.05;1714462;83;21249;-61
2021/03/10 04:17:53;;;;;;;21.97;15.80;;;;;;;-4.38;58.87;100632.95;1706714;83;21053;-61
2021/03/10 04:20:23;;;;;;;29.07;15.97;;;;;;;-4.44;59.07;100636.92;1703037;84;21017;-63
2021/03/10 04:22:51;;;;;;;33.67;19.03;;;;;;;-4.50;59.15;100636.12;1703285;83;21061;-64
2021/03/10 04:25:19;;;;;;;22.90;12.50;;;;;;;-4.58;59.32;100645.61;1724802;83;21137;-62
2021/03/10 04:27:46;;;;;;;32.07;17.20;;;;;;;-4.70;59.52;100641.41;1724707;83;21405;-61
2021/03/10 04:30:15;;;;;;;36.03;18.90;;;;;;;-4.90;59.77;100651.78;1725452;83;21026;-61
2021/03/10 04:32:43;;;;;;;40.33;20.63;;;;;;;-4.99;60.18;100650.39;1725524;83;21140;-62
2021/03/10 04:35:11;;;;;;;40.43;24.27;;;;;;;-4.99;60.45;100650.39;1724601;83;21136;-61
2021/03/10 04:37:40;;;;;;;70.37;33.47;;;;;;;-5.01;60.55;100649.67;1732528;82;21663;-60
2021/03/10 04:40:10;;;;;;;71.57;34.30;;;;;;;-5.01;60.70;100647.89;1708467;83;21372;-61
2021/03/10 04:42:39;;;;;;;72.13;39.53;;;;;;;-4.98;60.76;100650.72;1727662;82;21177;-60
2021/03/10 04:45:09;;;;;;;91.70;49.03;;;;;;;-4.98;60.77;100656.80;1724741;83;20994;-62
2021/03/10 04:47:37;;;;;;;96.50;53.70;;;;;;;-5.00;60.82;100657.91;1724713;83;21145;-61
2021/03/10 04:50:06;;;;;;;111.60;58.63;;;;;;;-5.01;60.95;100657.55;1731073;81;21165;-61
2021/03/10 04:52:34;;;;;;;98.13;45.47;;;;;;;-5.00;61.01;100657.43;1757372;81;21340;-62
2021/03/10 04:55:04;;;;;;;128.27;67.20;;;;;;;-5.04;61.14;100657.33;1756335;81;21643;-61
2021/03/10 04:57:33;;;;;;;140.77;69.77;;;;;;;-5.15;61.45;100653.91;1755411;81;21188;-62
2021/03/10 05:00:00;;;;;;;123.13;62.13;;;;;;;-5.25;61.74;100656.45;1732919;81;21138;-62
2021/03/10 05:02:27;;;;;;;131.73;74.80;;;;;;;-5.25;62.01;100653.00;1735768;82;21142;-63
2021/03/10 05:04:55;;;;;;;138.90;77.60;;;;;;;-5.20;62.19;100658.22;1715350;82;21611;-63
2021/03/10 05:07:22;;;;;;;163.97;90.30;;;;;;;-5.12;62.25;100654.48;1709521;84;21152;-61
2021/03/10 05:09:50;;;;;;;157.10;83.10;;;;;;;-5.06;62.18;100657.09;1709421;84;21209;-62
2021/03/10 05:12:18;;;;;;;184.10;100.43;;;;;;;-5.01;62.20;100657.07;1709505;84;21912;-61
2021/03/10 05:14:48;;;;;;;123.70;65.63;;;;;;;-4.92;62.37;100658.09;1731136;82;21158;-61
2021/03/10 05:17:15;;;;;;;141.73;78.13;;;;;;;-4.75;62.21;100667.20;1738215;82;21374;-64
2021/03/10 05:19:43;;;;;;;162.53;80.93;;;;;;;-4.65;62.07;100659.72;1727815;82;21038;-61
2021/03/10 05:22:11;;;;;;;166.83;85.13;;;;;;;-4.54;61.95;100664.91;1737906;82;21685;-60
2021/03/10 05:24:40;;;;;;;181.17;95.87;;;;;;;-4.45;61.81;100659.35;1757936;81;21117;-66
2021/03/10 05:27:07;;;;;;;185.53;90.80;;;;;;;-4.37;61.65;100663.97;1758014;81;21129;-63
2021/03/10 05:29:35;;;;;;;197.93;103.70;;;;;;;-4.30;61.52;100663.30;1756290;81;23526;-60
2021/03/10 05:32:05;;;;;;;151.77;75.67;;;;;;;-4.17;61.32;100670.98;1750896;81;21165;-61
2021/03/10 05:34:33;;;;;;;157.93;77.63;;;;;;;-4.12;61.01;100670.08;1741731;82;21204;-60
2021/03/10 05:37:01;;;;;;;135.03;65.53;;;;;;;-4.11;60.87;100669.12;1751810;81;21042;-61
2021/03/10 05:39:28;;;;;;;111.57;57.40;;;;;;;-4.08;60.73;100676.77;1727676;82;21307;-62
2021/03/10 05:41:56;;;;;;;126.63;55.80;;;;;;;-4.00;60.66;100676.92;1740198;82;21212;-60
2021/03/10 05:44:25;;;;;;;96.93;46.60;;;;;;;-3.88;60.39;100675.05;1733900;82;21185;-61
2021/03/10 05:46:53;;;;;;;77.43;39.70;;;;;;;-3.83;60.16;100683.33;1724323;82;21161;-60
2021/03/10 05:49:22;;;;;;;67.67;32.07;;;;;;;-3.86;60.05;100685.76;1713823;83;21053;-60
2021/03/10 05:51:50;;;;;;;59.53;27.87;;;;;;;-3.91;59.93;100689.27;1754234;81;21562;-61
2021/03/10 05:54:19;;;;;;;73.23;34.93;;;;;;;-3.93;60.57;100694.31;1741663;82;21263;-61
2021/03/10 05:56:47;;;;;;;72.23;37.50;;;;;;;-3.90;60.56;100694.05;1754858;81;21011;-59
2021/03/10 05:59:16;;;;;;;75.60;36.33;;;;;;;-3.80;60.49;100698.85;1733759;82;21212;-62
2021/03/10 06:01:43;;;;;;;69.13;34.47;;;;;;;-3.75;60.41;100696.66;1727169;83;21185;-61
2021/03/10 06:04:11;;;;;;;70.67;36.00;;;;;;;-3.67;60.42;100704.22;1733791;82;21656;-60
2021/03/10 06:06:41;;;;;;;78.40;38.77;;;;;;;-3.64;60.32;100700.00;1741967;82;22317;-60
2021/03/10 06:09:20;;;;;;;73.30;36.60;;;;;;;-3.58;60.33;100706.04;1734356;82;21659;-60
2021/03/10 06:12:02;;;;;;;63.37;29.30;;;;;;;-3.54;60.31;100703.97;1712275;83;21169;-61
2021/03/10 06:14:30;;;;;;;55.27;27.33;;;;;;;-3.47;60.27;100705.11;1712291;83;21206;-63
2021/03/10 06:17:06;;;;;;;59.50;27.47;;;;;;;-3.39;60.05;100705.25;1712207;83;21191;-62
2021/03/10 06:19:47;;;;;;;39.67;22.13;;;;;;;-3.38;60.09;100709.55;1735443;82;21474;-63
2021/03/10 06:22:16;;;;;;;30.93;17.47;;;;;;;-3.37;60.33;100711.70;1740583;82;21593;-62
2021/03/10 06:24:44;;;;;;;33.43;17.43;;;;;;;-3.35;60.51;100713.22;1742029;82;21110;-64
2021/03/10 06:27:11;;;;;;;35.57;17.60;;;;;;;-3.31;60.51;100716.43;1741990;82;21240;-61
2021/03/10 06:29:39;;;;;;;23.30;13.23;;;;;;;-3.25;60.72;100715.37;1668297;83;21209;-60
2021/03/10 06:32:08;;;;;;;16.27;10.63;;;;;;;-3.15;60.63;100714.08;1718578;82;22334;-62
2021/03/10 06:34:44;;;;;;;14.73;9.40;;;;;;;-3.02;60.32;100719.09;1712269;83;21157;-63
2021/03/10 06:37:11;;;;;;;14.93;8.20;;;;;;;-2.91;59.08;100717.63;1712544;83;21911;-60
2021/03/10 06:39:40;;;;;;;13.23;8.33;;;;;;;-2.97;58.73;100720.33;1736506;82;21239;-61
2021/03/10 06:42:13;;;;;;;14.60;7.03;;;;;;;-3.01;58.65;100722.89;1731063;82;21185;-61
2021/03/10 06:44:51;;;;;;;15.00;10.03;;;;;;;-2.96;58.52;100723.78;1742140;82;21402;-60
2021/03/10 06:47:19;;;;;;;17.07;8.93;;;;;;;-2.96;58.27;100717.20;1742201;82;21145;-64
2021/03/10 06:49:51;;;;;;;12.77;9.17;;;;;;;-2.91;58.15;100718.46;1742034;82;21150;-61
2021/03/10 06:52:18;;;;;;;13.13;7.87;;;;;;;-2.82;57.85;100712.84;1738040;82;21192;-61
2021/03/10 06:54:55;;;;;;;17.10;10.43;;;;;;;-2.76;57.39;100715.77;1755289;81;21535;-62
2021/03/10 06:57:23;;;;;;;11.60;7.27;;;;;;;-2.72;57.26;100716.31;1752267;81;21385;-61
2021/03/10 06:59:52;;;;;;;17.13;10.43;;;;;;;-2.66;56.97;100719.71;1719180;82;21205;-61
2021/03/10 07:02:30;;;;;;;16.00;8.63;;;;;;;-2.58;56.85;100721.63;1703210;82;21153;-60
2021/03/10 07:05:00;;;;;;;15.50;8.53;;;;;;;-2.44;56.18;100715.45;1756955;81;21153;-61
2021/03/10 07:07:29;;;;;;;16.70;9.00;;;;;;;-2.35;55.40;100719.86;1755795;81;21118;-60
2021/03/10 07:09:57;;;;;;;20.17;9.13;;;;;;;-2.30;54.38;100720.27;1722754;83;21257;-60
2021/03/10 07:12:26;;;;;;;17.30;7.40;;;;;;;-2.26;54.20;100717.72;1701009;82;21185;-62
2021/03/10 07:14:53;;;;;;;11.90;7.37;;;;;;;-2.22;52.60;100724.85;1731598;82;21166;-60
2021/03/10 07:17:25;;;;;;;17.03;8.17;;;;;;;-2.23;52.39;100731.08;1731379;82;21167;-62
2021/03/10 07:19:53;;;;;;;11.93;6.60;;;;;;;-2.14;52.66;100723.64;1731766;82;21114;-61
2021/03/10 07:22:43;;;;;;;8.93;6.37;;;;;;;-2.06;52.22;100722.94;1730878;82;21383;-61
2021/03/10 07:25:22;;;;;;;8.17;4.93;;;;;;;-1.99;51.73;100721.37;1706611;82;21146;-62
2021/03/10 07:27:57;;;;;;;11.93;5.77;;;;;;;-1.99;51.15;100714.30;1721733;82;21101;-60
2021/03/10 07:30:45;;;;;;;5.20;3.87;;;;;;;-2.02;51.13;100718.56;1719611;83;21149;-61
2021/03/10 07:33:20;;;;;;;8.20;5.20;;;;;;;-2.08;50.59;100718.28;1721542;82;21170;-61
2021/03/10 07:35:57;;;;;;;6.77;4.97;;;;;;;-2.13;51.03;100715.25;1712731;83;21210;-60
2021/03/10 07:38:38;;;;;;;5.87;4.70;;;;;;;-2.09;50.54;100714.82;1731340;82;21137;-62
2021/03/10 07:41:11;;;;;;;8.13;4.80;;;;;;;-2.05;50.24;100713.55;1708195;83;21664;-60
2021/03/10 07:43:48;;;;;;;22.75;6.95;;;;;;;-1.97;49.90;100715.48;1734260;82;21232;-68
2021/03/10 07:46:37;;;;;;;21.97;7.73;;;;;;;-1.95;49.41;100713.52;1712539;83;21163;-61
2021/03/10 07:49:21;;;;;;;28.57;9.37;;;;;;;-1.95;49.25;100716.16;1709710;84;21386;-60
2021/03/10 07:51:54;;;;;;;18.03;7.20;;;;;;;-1.83;49.42;100713.22;1709407;83;21192;-60
2021/03/10 07:54:25;;;;;;;7.97;6.07;;;;;;;-1.67;48.37;100711.25;1708656;83;21085;-61
2021/03/10 07:57:15;;;;;;;7.17;4.80;;;;;;;-1.64;47.97;100713.61;1739271;82;21674;-62
2021/03/10 08:00:02;;;;;;;10.13;6.83;;;;;;;-1.72;47.80;100717.94;1739045;82;21066;-62
2021/03/10 08:02:42;;;;;;;7.73;4.43;;;;;;;-1.77;47.46;100711.78;1709366;84;21275;-61
2021/03/10 08:05:25;;;;;;;12.50;6.17;;;;;;;-1.79;47.50;100713.27;1728656;82;21145;-61
2021/03/10 08:08:15;;;;;;;13.73;6.00;;;;;;;-1.86;47.82;100710.84;1732487;82;21602;-62
2021/03/10 08:10:45;;;;;;;22.05;7.92;;;;;;;-1.92;47.82;100710.09;1682814;83;21203;-59
2021/03/10 08:13:19;;;;;;;19.03;8.70;;;;;;;-1.91;47.36;100710.45;1681990;82;21148;-62
2021/03/10 08:15:47;;;;;;;14.43;7.70;;;;;;;-1.86;47.60;100713.48;1710014;82;22141;-62
2021/03/10 08:18:20;;;;;;;9.33;6.10;;;;;;;-1.72;47.39;100708.70;1709704;84;21236;-61
2021/03/10 08:20:49;;;;;;;7.80;6.23;;;;;;;-1.64;46.80;100710.14;1738376;82;21156;-60
2021/03/10 08:23:16;;;;;;;7.33;5.70;;;;;;;-1.60;46.86;100709.70;1728904;82;21164;-61
2021/03/10 08:25:50;;;;;;;6.90;5.20;;;;;;;-1.58;46.53;100702.97;1728912;82;21157;-60
2021/03/10 08:28:18;;;;;;;11.87;6.23;;;;;;;-1.49;46.65;100708.68;1721989;82;22308;-59
2021/03/10 08:30:45;;;;;;;8.87;5.47;;;;;;;-1.47;46.63;100708.03;1708359;83;21196;-60
2021/03/10 08:33:12;;;;;;;9.90;5.73;;;;;;;-1.47;46.21;100709.34;1708341;83;21208;-63
2021/03/10 08:35:49;;;;;;;8.07;4.83;;;;;;;-1.50;45.93;100707.02;1736285;82;21130;-62
2021/03/10 08:38:17;;;;;;;9.03;4.17;;;;;;;-1.58;45.98;100702.45;1739241;82;21166;-61
2021/03/10 08:40:44;;;;;;;6.50;4.70;;;;;;;-1.65;46.21;100701.88;1739128;82;21518;-62
2021/03/10 08:43:19;;;;;;;5.10;4.13;;;;;;;-1.66;46.29;100697.09;1739373;82;21095;-62
2021/03/10 08:45:47;;;;;;;12.00;5.87;;;;;;;-1.57;46.55;100698.02;1733765;82;21161;-61
2021/03/10 08:48:14;;;;;;;12.53;6.93;;;;;;;-1.50;46.47;100695.98;1714860;82;21165;-62
2021/03/10 08:50:45;;;;;;;9.87;7.07;;;;;;;-1.40;46.38;100694.60;1721871;82;21193;-62
2021/03/10 08:53:14;;;;;;;6.50;5.13;;;;;;;-1.35;46.05;100698.46;1730929;82;21335;-61
2021/03/10 08:55:44;;;;;;;7.90;6.10;;;;;;;-1.27;45.44;100696.38;1732818;82;21147;-60
2021/03/10 08:58:17;;;;;;;8.93;5.93;;;;;;;-1.24;45.30;100693.92;1714331;83;21169;-61
2021/03/10 09:00:46;;;;;;;5.87;4.50;;;;;;;-1.24;45.22;100692.11;1732854;82;21155;-64
2021/03/10 09:03:18;;;;;;;9.43;5.50;;;;;;;-1.16;45.18;100689.58;1712346;82;21198;-63
2021/03/10 09:05:50;;;;;;;8.60;5.47;;;;;;;-1.09;44.71;100689.30;1729467;82;21356;-62
2021/03/10 09:08:26;;;;;;;19.83;6.67;;;;;;;-1.02;45.08;100685.58;1698186;84;21286;-61
2021/03/10 09:10:55;;;;;;;13.83;7.27;;;;;;;-0.98;44.61;100683.81;1702090;84;21582;-61
2021/03/10 09:13:48;;;;;;;11.23;5.97;;;;;;;-0.83;44.74;100677.99;1832292;76;26601;-62
2021/03/10 09:16:17;;;;;;;9.50;6.40;;;;;;;-0.76;44.89;100685.63;1816174;79;20967;-61
2021/03/10 09:19:02;;;;;;;9.83;5.27;;;;;;;-0.72;44.17;100690.45;1815349;79;22194;-59
2021/03/10 09:21:40;;;;;;;8.30;5.43;;;;;;;-0.67;44.34;100691.34;1812528;79;21008;-62
2021/03/10 09:24:09;;;;;;;9.40;4.70;;;;;;;-0.56;44.23;100691.08;1748579;81;21034;-61
2021/03/10 09:26:38;;;;;;;9.53;5.10;;;;;;;-0.54;43.45;100681.20;1752043;81;20962;-59
2021/03/10 09:29:08;;;;;;;4.03;3.63;;;;;;;-0.51;43.70;100689.64;1793561;79;21543;-61
2021/03/10 09:31:54;;;;;;;12.60;6.07;;;;;;;-0.41;43.07;100680.78;1776119;80;22097;-60
2021/03/10 09:34:24;;;;;;;11.40;5.77;;;;;;;-0.49;42.89;100674.97;1757144;80;21015;-61
2021/03/10 09:36:52;;;;;;;11.67;7.90;;;;;;;-0.55;43.07;100683.02;1754054;80;20951;-61
2021/03/10 09:39:23;;;;;;;13.00;5.63;;;;;;;-0.51;43.53;100675.11;1755686;80;21058;-60
2021/03/10 09:41:56;;;;;;;8.43;4.83;;;;;;;-0.40;43.28;100668.75;1780176;80;21535;-61
2021/03/10 09:44:26;;;;;;;11.67;7.00;;;;;;;-0.30;43.06;100668.64;1774174;80;21382;-61
2021/03/10 09:46:55;;;;;;;8.53;5.70;;;;;;;-0.23;43.05;100670.98;1784864;80;21591;-60
2021/03/10 09:49:23;;;;;;;7.50;5.20;;;;;;;-0.15;42.98;100669.25;1784079;80;21105;-61
2021/03/10 09:51:52;;;;;;;15.27;7.33;;;;;;;-0.06;42.78;100676.23;1784818;80;21031;-63
2021/03/10 09:54:21;;;;;;;7.90;5.83;;;;;;;0.05;42.45;100679.59;1784791;80;21223;-62
2021/03/10 09:56:53;;;;;;;10.77;7.73;;;;;;;0.13;42.20;100682.27;1784462;80;21190;-60
2021/03/10 09:59:32;;;;;;;8.67;6.20;;;;;;;0.16;41.94;100677.48;1779182;80;21168;-60
2021/03/10 10:02:07;;;;;;;10.20;6.67;;;;;;;0.30;41.75;100676.88;1846889;76;26631;-60
2021/03/10 10:04:42;;;;;;;6.10;3.77;;;;;;;0.28;41.52;100676.23;1808850;79;21015;-62
2021/03/10 10:07:13;;;;;;;6.43;5.30;;;;;;;0.25;41.38;100681.81;1785037;80;22103;-61
2021/03/10 10:09:42;;;;;;;9.65;5.53;;;;;;;0.22;41.36;100677.34;1804016;79;21058;-59
2021/03/10 10:12:14;;;;;;;5.10;4.27;;;;;;;0.23;41.57;100672.40;1813709;79;21036;-61
2021/03/10 10:14:52;;;;;;;8.60;4.97;;;;;;;0.34;40.52;100672.92;1811859;79;20984;-60
2021/03/10 10:17:21;;;;;;;7.20;4.57;;;;;;;0.37;40.41;100670.47;1794702;79;21083;-61
2021/03/10 10:19:49;;;;;;;7.10;5.57;;;;;;;0.40;40.41;100666.16;1748416;81;21222;-61
2021/03/10 10:22:18;;;;;;;15.00;6.20;;;;;;;0.36;40.56;100664.34;1761743;81;21053;-61
2021/03/10 10:24:47;;;;;;;9.10;5.83;;;;;;;0.41;40.59;100667.83;1762470;81;21594;-59
2021/03/10 10:27:15;;;;;;;8.03;5.67;;;;;;;0.52;40.18;100668.03;1770557;79;21184;-60
2021/03/10 10:29:44;;;;;;;8.17;5.17;;;;;;;0.51;39.85;100669.84;1727036;81;21594;-60
2021/03/10 10:32:13;;;;;;;14.67;6.37;;;;;;;0.53;40.25;100660.44;1725489;82;22368;-61
2021/03/10 10:34:42;;;;;;;5.90;4.87;;;;;;;0.56;40.48;100663.58;1746420;82;21063;-61
2021/03/10 10:37:11;;;;;;;8.60;5.57;;;;;;;0.52;39.94;100658.28;1769687;80;21150;-61
2021/03/10 10:39:40;;;;;;;9.77;5.23;;;;;;;0.50;40.04;100658.09;1782899;80;21177;-61
2021/03/10 10:42:08;;;;;;;13.33;4.37;;;;;;;0.45;39.78;100659.90;1783645;80;21177;-60
2021/03/10 10:44:37;;;;;;;12.23;5.43;;;;;;;0.48;39.60;100665.38;1782424;80;21383;-62
2021/03/10 10:47:06;;;;;;;5.13;4.03;;;;;;;0.47;39.59;100648.67;1783731;80;21153;-60
2021/03/10 10:49:36;;;;;;;4.83;3.90;;;;;;;0.54;39.60;100648.34;1702406;84;21129;-61
2021/03/10 10:52:05;;;;;;;11.50;6.70;;;;;;;0.63;40.47;100648.69;1703192;84;21141;-61
2021/03/10 10:54:34;;;;;;;10.97;6.97;;;;;;;0.74;40.00;100647.06;1702624;84;21602;-64
2021/03/10 10:57:02;;;;;;;11.40;7.73;;;;;;;0.79;39.90;100640.79;1753826;81;21261;-60
2021/03/10 10:59:39;;;;;;;12.60;6.57;;;;;;;0.88;39.83;100635.83;1883209;76;26501;-61
2021/03/10 11:02:09;;;;;;;8.10;5.27;;;;;;;0.93;40.12;100634.02;1781279;79;21070;-60
2021/03/10 11:04:39;;;;;;;11.03;5.37;;;;;;;0.93;39.77;100634.50;1854301;77;21199;-61
2021/03/10 11:07:09;;;;;;;7.17;4.90;;;;;;;0.96;39.47;100633.67;1854123;77;21022;-61
2021/03/10 11:09:39;;;;;;;8.60;5.63;;;;;;;1.00;39.52;100629.73;1805977;79;21003;-60
2021/03/10 11:12:11;;;;;;;11.30;6.23;;;;;;;1.04;39.73;100627.08;1831885;78;20995;-60
2021/03/10 11:14:40;;;;;;;12.53;5.47;;;;;;;1.09;39.27;100627.41;1793000;78;20967;-60
2021/03/10 11:17:09;;;;;;;11.97;5.37;;;;;;;1.20;39.00;100629.70;1827035;78;22540;-60
2021/03/10 11:19:43;;;;;;;8.17;5.93;;;;;;;1.31;38.67;100627.22;1821193;77;21614;-62
2021/03/10 11:22:11;;;;;;;8.17;5.73;;;;;;;1.45;37.88;100625.22;1820672;77;21562;-64
2021/03/10 11:24:39;;;;;;;11.30;6.07;;;;;;;1.49;38.23;100627.86;1820657;78;21153;-60
2021/03/10 11:27:08;;;;;;;8.13;6.03;;;;;;;1.46;38.11;100622.91;1782543;80;21134;-61
2021/03/10 11:29:38;;;;;;;7.13;4.07;;;;;;;1.47;38.44;100621.91;1752556;80;21883;-62
2021/03/10 11:32:08;;;;;;;9.70;6.47;;;;;;;1.44;38.02;100615.60;1768318;80;21038;-60
2021/03/10 11:34:37;;;;;;;5.27;4.63;;;;;;;1.46;37.93;100626.87;1757464;80;21582;-60